• Join FlightAware (Why Join?)
  • Login
  • US Flag 
02:29PM EDT


 

Airport Tracker/Info


-or-


 

Live Flight TrackerFlight Track Log ✈ CTL61 ✈ 26-Apr-2013 ✈ KCRW - KOSU

Flight Track Log - Related Links

Times and Time Zones

All times are in EDT time to prevent confusion due to time zone crossing. See the CTL61 flight status page for this flight to view local times or setup timezone preferences in your user account.

Time Position Orientation Groundspeed Altitude Reporting Facility
EDT Latitude Longitude Course Direction KTS MPH feet Rate Location/Type
11:25PM 38.4519 -81.7042 327° Northwest 129 148 4,800  Level Indianapolis Center
11:26PM 38.4861 -81.7306 329° Northwest 137 158 5,000 120 Climbing Indianapolis Center
11:27PM 38.5613 -81.7492 327° Northwest  Level FlightAware Approximate
11:27PM 38.5239 -81.7647 325° Northwest 158 182 5,100  Level Indianapolis Center
11:28PM 38.6004 -81.7823 327° Northwest  Level FlightAware Approximate
11:28PM 38.5622 -81.7969 327° Northwest 163 188 4,900  Level Indianapolis Center
11:29PM 38.6396 -81.8154 327° Northwest  Level FlightAware Approximate
11:29PM 38.5956 -81.8244 327° Northwest 148 170 5,900  Level Indianapolis Center
11:30PM 38.6289 -81.8528 326° Northwest 143 165 6,000  Climbing Indianapolis Center
11:31PM 38.6664 -81.8872 324° Northwest 162 186 6,000  Level Indianapolis Center
11:32PM 38.7050 -81.9211 326° Northwest 167 192 6,000 -60 Level Indianapolis Center
11:33PM 38.7450 -81.9536 328° Northwest 170 196 5,900  Descending Indianapolis Center
11:34PM 38.7853 -81.9872 327° Northwest 172 198 6,000  Climbing Indianapolis Center
11:35PM 38.8247 -82.0200 327° Northwest 171 197 6,000  Level Indianapolis Center
11:36PM 38.8644 -82.0544 326° Northwest 171 197 6,000  Level Indianapolis Center
11:37PM 38.9047 -82.0881 327° Northwest 172 198 6,000  Level Indianapolis Center
11:38PM 38.9461 -82.1242 326° Northwest 177 204 6,000 -60 Level Indianapolis Center
11:39PM 38.9847 -82.1581 326° Northwest 172 198 5,900 -60 Descending Indianapolis Center
11:40PM 39.0256 -82.1942 326° Northwest 174 200 5,900  Level Indianapolis Center
11:41PM 39.0628 -82.2344 320° Northwest 173 199 5,900  Level Indianapolis Center
11:42PM 39.1008 -82.2750 320° Northwest 175 201 6,000  Climbing Indianapolis Center
11:43PM 39.1386 -82.3153 320° Northwest 176 203 6,000  Level Indianapolis Center
11:44PM 39.1783 -82.3528 324° Northwest 177 204 6,000 -60 Level Indianapolis Center
11:45PM 39.2269 -82.3953 326° Northwest 175 201 5,900  Descending Indianapolis Center
11:46PM 39.2683 -82.4264 330° Northwest 173 199 6,000  Climbing Indianapolis Center
11:47PM 39.3075 -82.4650 323° Northwest 175 201 6,000  Level Indianapolis Center
11:48PM 39.3233 -82.4833 318° Northwest 174 200 6,000  Level Indianapolis Center
11:48PM 39.3453 -82.5036 324° Northwest 174 200 6,000  Level Indianapolis Center
11:49PM 39.3647 -82.5228 323° Northwest 175 201 6,000  Level Indianapolis Center
11:49PM 39.3839 -82.5444 319° Northwest 176 203 6,000  Level Indianapolis Center
11:50PM 39.4042 -82.5619 326° Northwest 175 201 6,000  Level Indianapolis Center
11:50PM 39.4256 -82.5761 333° Northwest 172 198 6,000  Level Indianapolis Center
11:51PM 39.4478 -82.5964 325° Northwest 173 199 6,000  Level Indianapolis Center
11:51PM 39.4661 -82.6114 328° Northwest 173 199 6,000 60 Level Indianapolis Center
11:52PM 39.4875 -82.6306 325° Northwest 173 199 6,100  Climbing Indianapolis Center
11:52PM 39.5067 -82.6464 327° Northwest 174 200 6,000 -120 Descending Indianapolis Center
11:53PM 39.5292 -82.6647 328° Northwest 175 201 6,000  Level Indianapolis Center
11:53PM 39.5472 -82.6817 324° Northwest 174 200 6,000  Level Indianapolis Center
11:54PM 39.5728 -82.7019 329° Northwest 174 200 6,000  Level Indianapolis Center
11:54PM 39.5875 -82.7172 321° Northwest 174 200 6,000  Level Indianapolis Center
11:55PM 39.6122 -82.7389 326° Northwest 174 200 6,000  Level Indianapolis Center
11:55PM 39.6278 -82.7503 331° Northwest 172 198 6,000  Level Indianapolis Center
11:56PM 39.6517 -82.7731 324° Northwest 175 201 6,000 -120 Level Indianapolis Center
11:56PM 39.6689 -82.7864 329° Northwest 175 201 5,900 -480 Descending Indianapolis Center
11:57PM 39.6892 -82.8097 318° Northwest 180 207 5,600 -540 Descending Indianapolis Center
11:57PM 39.7106 -82.8278 327° Northwest 184 212 5,400 -540 Descending Indianapolis Center
11:58PM 39.7325 -82.8469 326° Northwest 190 219 5,100 -540 Descending Indianapolis Center
11:58PM 39.7561 -82.8636 332° Northwest 188 216 4,900 -420 Descending Indianapolis Center
11:59PM 39.7786 -82.8792 332° Northwest 189 217 4,700 -420 Descending Indianapolis Center
11:59PM 39.8025 -82.8944 334° Northwest 186 214 4,500 -480 Descending Indianapolis Center
12:00AM 39.8206 -82.9086 329° Northwest 185 213 4,300 -420 Descending Indianapolis Center
12:00AM 39.8481 -82.9272 333° Northwest 186 214 4,100 -420 Descending Indianapolis Center
12:01AM 39.8642 -82.9433 322° Northwest 184 212 3,900 -540 Descending Indianapolis Center
12:01AM 39.8839 -82.9561 334° Northwest 184 212 3,600 -480 Descending Indianapolis Center